createdAt,value
2022-12-27T00:03:23.619Z,49.20
2022-12-27T00:08:27.113Z,48.99
2022-12-27T00:13:30.729Z,49.11
2022-12-27T00:18:34.254Z,49.09
2022-12-27T00:23:37.748Z,49.06
2022-12-27T00:28:41.233Z,49.07
2022-12-27T00:33:44.734Z,49.08
2022-12-27T00:38:48.289Z,49.08
2022-12-27T00:43:51.780Z,49.06
2022-12-27T00:48:55.486Z,49.10
2022-12-27T00:53:59.022Z,49.11
2022-12-27T00:59:02.506Z,49.03
2022-12-27T01:04:06.130Z,48.75
2022-12-27T01:09:09.646Z,49.02
2022-12-27T01:14:13.112Z,49.06
2022-12-27T01:19:16.592Z,48.87
2022-12-27T01:24:20.053Z,48.63
2022-12-27T01:29:23.555Z,48.73
2022-12-27T01:34:27.076Z,48.75
2022-12-27T01:39:30.591Z,48.92
2022-12-27T01:44:34.047Z,48.83
2022-12-27T01:49:37.514Z,48.83
2022-12-27T01:54:41.012Z,48.89
2022-12-27T01:59:44.498Z,49.19
2022-12-27T02:04:47.978Z,49.11
2022-12-27T02:09:51.470Z,49.01
2022-12-27T02:14:54.945Z,48.99
2022-12-27T02:19:58.542Z,48.98
2022-12-27T02:25:02.121Z,49.03
2022-12-27T02:30:05.775Z,49.19
2022-12-27T02:35:09.285Z,49.13
2022-12-27T02:40:32.642Z,49.09
2022-12-27T02:45:53.841Z,49.27
2022-12-27T02:51:15.363Z,49.21
2022-12-27T02:56:36.693Z,49.35
2022-12-27T03:01:58.239Z,49.25
2022-12-27T03:07:01.882Z,49.46
2022-12-27T03:12:23.146Z,49.39
2022-12-27T03:17:26.633Z,49.45
2022-12-27T03:22:47.720Z,49.43
2022-12-27T03:28:11.179Z,49.43
2022-12-27T03:33:14.671Z,49.35
2022-12-27T03:38:18.264Z,49.41
2022-12-27T03:43:21.810Z,49.45
2022-12-27T03:48:25.316Z,49.48
2022-12-27T03:53:28.801Z,49.52
2022-12-27T03:58:32.301Z,49.49
2022-12-27T04:03:35.904Z,49.53
2022-12-27T04:08:57.333Z,49.52
2022-12-27T04:14:18.826Z,49.47
2022-12-27T04:19:40.233Z,49.58
2022-12-27T04:25:01.522Z,49.35
2022-12-27T04:30:23.000Z,49.58
2022-12-27T04:35:26.469Z,49.47
2022-12-27T04:40:47.759Z,49.59
2022-12-27T04:46:09.249Z,49.54
2022-12-27T04:51:30.829Z,49.43
2022-12-27T04:56:34.357Z,49.19
2022-12-27T05:01:55.893Z,49.51
2022-12-27T05:07:19.499Z,49.47
2022-12-27T05:12:41.008Z,49.57
2022-12-27T05:17:44.524Z,49.41
2022-12-27T05:23:05.749Z,49.44
2022-12-27T05:28:09.292Z,49.70
2022-12-27T05:33:12.778Z,49.46
2022-12-27T05:38:16.267Z,49.20
2022-12-27T05:43:19.780Z,49.33
2022-12-27T05:48:23.471Z,49.55
2022-12-27T05:53:27.016Z,49.13
2022-12-27T05:58:30.477Z,49.08
2022-12-27T06:03:33.977Z,48.97
2022-12-27T06:08:37.524Z,48.75
2022-12-27T06:13:40.988Z,48.76
2022-12-27T06:18:44.524Z,48.57
2022-12-27T06:23:48.018Z,48.66
2022-12-27T06:28:51.595Z,48.80
2022-12-27T06:33:55.073Z,48.62
2022-12-27T06:38:58.747Z,48.22
2022-12-27T06:44:02.304Z,48.36
2022-12-27T06:49:05.840Z,48.03
2022-12-27T06:54:09.413Z,48.08
2022-12-27T06:59:13.380Z,48.06
2022-12-27T07:04:16.888Z,47.80
2022-12-27T07:09:20.423Z,47.95
2022-12-27T07:14:23.934Z,47.95
2022-12-27T07:19:27.424Z,47.95
2022-12-27T07:24:33.231Z,47.98
2022-12-27T07:29:41.893Z,47.88
2022-12-27T07:34:48.758Z,47.83
2022-12-27T07:39:52.221Z,47.82
2022-12-27T07:44:55.711Z,47.73
2022-12-27T07:49:59.222Z,47.49
2022-12-27T07:55:02.732Z,47.65
2022-12-27T08:00:06.241Z,47.13
2022-12-27T08:05:09.760Z,47.23
2022-12-27T08:10:13.270Z,47.19
2022-12-27T08:15:16.801Z,47.26
2022-12-27T08:20:20.423Z,47.23
2022-12-27T08:25:23.957Z,47.18
2022-12-27T08:30:27.596Z,46.84
2022-12-27T08:35:52.259Z,46.92
2022-12-27T08:40:54.592Z,47.05
2022-12-27T08:45:58.295Z,46.87
2022-12-27T08:51:02.574Z,46.72
2022-12-27T08:56:08.443Z,46.76
2022-12-27T09:01:12.042Z,46.56
2022-12-27T09:06:16.535Z,46.86
2022-12-27T09:11:20.144Z,45.43
2022-12-27T09:16:23.607Z,46.37
2022-12-27T09:21:27.136Z,45.98
2022-12-27T09:26:30.804Z,46.22
2022-12-27T09:31:34.423Z,45.61
2022-12-27T09:36:37.972Z,46.32
2022-12-27T09:42:44.408Z,46.47
2022-12-27T09:47:05.368Z,47.34
2022-12-27T09:52:08.977Z,46.48
2022-12-27T09:57:20.777Z,47.02
2022-12-27T10:02:24.644Z,47.46
2022-12-27T10:07:28.291Z,47.52
2022-12-27T10:12:32.162Z,47.58
2022-12-27T10:17:35.829Z,47.40
2022-12-27T10:22:40.851Z,46.67
2022-12-27T10:27:44.437Z,46.55
2022-12-27T10:32:48.010Z,46.56
2022-12-27T10:37:53.634Z,46.83
2022-12-27T10:42:57.217Z,45.99
2022-12-27T10:48:00.751Z,46.20
2022-12-27T10:53:04.344Z,46.29
2022-12-27T10:58:07.957Z,46.33
2022-12-27T11:03:11.447Z,46.03
2022-12-27T11:08:15.252Z,45.47
2022-12-27T11:13:18.753Z,46.22
2022-12-27T11:18:22.435Z,45.68
2022-12-27T11:23:26.002Z,46.37
2022-12-27T11:28:29.557Z,46.12
2022-12-27T11:33:33.062Z,45.31
2022-12-27T11:38:36.603Z,44.88
2022-12-27T11:43:40.303Z,44.87
2022-12-27T11:48:43.820Z,44.19
2022-12-27T11:53:49.805Z,44.30
2022-12-27T11:58:57.727Z,42.36
2022-12-27T12:04:01.226Z,43.88
2022-12-27T12:09:04.798Z,43.83
2022-12-27T12:14:08.381Z,46.88
2022-12-27T12:19:11.932Z,47.21
2022-12-27T12:24:15.482Z,45.20
2022-12-27T12:29:19.159Z,47.28
2022-12-27T12:34:22.803Z,47.47
2022-12-27T12:39:26.272Z,45.74
2022-12-27T12:44:29.765Z,46.84
2022-12-27T12:49:33.268Z,47.39
2022-12-27T12:54:36.798Z,47.15
2022-12-27T12:59:40.459Z,46.06
2022-12-27T13:04:44.015Z,45.38
2022-12-27T13:09:47.544Z,43.76
2022-12-27T13:14:51.018Z,46.45
2022-12-27T13:19:54.485Z,47.26
2022-12-27T13:24:59.093Z,47.20
2022-12-27T13:30:06.787Z,47.27
2022-12-27T13:35:14.976Z,47.09
2022-12-27T13:40:23.557Z,46.93
2022-12-27T13:45:27.055Z,46.81
2022-12-27T13:50:31.541Z,46.76
2022-12-27T13:55:35.040Z,46.65
2022-12-27T14:00:38.560Z,46.56
2022-12-27T14:05:44.335Z,46.47
2022-12-27T14:10:47.850Z,46.42
2022-12-27T14:15:51.418Z,46.15
2022-12-27T14:20:54.941Z,45.25
2022-12-27T14:25:58.448Z,46.07
2022-12-27T14:31:01.999Z,45.97
2022-12-27T14:36:05.504Z,46.04
2022-12-27T14:41:10.021Z,45.98
2022-12-27T14:46:13.551Z,45.58
2022-12-27T14:51:50.509Z,45.08
2022-12-27T14:56:40.772Z,45.66
2022-12-27T15:01:44.400Z,45.77
2022-12-27T15:06:50.018Z,46.27
2022-12-27T15:11:53.542Z,46.38
2022-12-27T15:16:57.030Z,46.57
2022-12-27T15:22:00.688Z,46.76
2022-12-27T15:27:04.492Z,46.89
2022-12-27T15:32:08.535Z,46.84
2022-12-27T15:37:11.985Z,47.13
2022-12-27T15:42:15.493Z,46.92
2022-12-27T15:47:18.991Z,46.50
2022-12-27T15:52:22.547Z,47.73
2022-12-27T15:57:26.206Z,48.07
2022-12-27T16:02:29.863Z,47.31
2022-12-27T16:07:33.818Z,47.67
2022-12-27T16:12:37.469Z,47.72
2022-12-27T16:17:41.042Z,47.88
2022-12-27T16:22:44.634Z,47.53
2022-12-27T16:27:48.162Z,47.93
2022-12-27T16:32:51.872Z,47.76
2022-12-27T16:37:55.403Z,47.44
2022-12-27T16:42:58.874Z,47.62
2022-12-27T16:48:02.568Z,47.71
2022-12-27T16:53:06.091Z,47.60
2022-12-27T16:58:09.590Z,47.30
2022-12-27T17:03:17.543Z,47.18
2022-12-27T17:08:24.266Z,47.14
2022-12-27T17:13:27.869Z,46.71
2022-12-27T17:18:31.423Z,46.77
2022-12-27T17:23:34.968Z,46.90
2022-12-27T17:28:38.467Z,47.40
2022-12-27T17:33:43.381Z,46.80
2022-12-27T17:38:46.986Z,46.75
2022-12-27T17:44:08.532Z,46.87
2022-12-27T17:49:12.442Z,46.93
2022-12-27T17:54:33.762Z,46.46
2022-12-27T17:59:37.636Z,46.59
2022-12-27T18:04:43.172Z,46.60
2022-12-27T18:09:46.703Z,46.66
2022-12-27T18:14:50.253Z,46.56
2022-12-27T18:19:53.792Z,46.32
2022-12-27T18:24:57.299Z,46.46
2022-12-27T18:30:00.878Z,46.21
2022-12-27T18:35:04.507Z,46.11
2022-12-27T18:40:08.661Z,46.13
2022-12-27T18:45:12.163Z,46.02
2022-12-27T18:50:15.642Z,46.05
2022-12-27T18:55:19.194Z,45.52
2022-12-27T19:00:24.365Z,45.71
2022-12-27T19:05:28.020Z,46.71
2022-12-27T19:10:33.496Z,47.13
2022-12-27T19:15:37.278Z,47.49
2022-12-27T19:20:40.987Z,49.03
2022-12-27T19:25:45.664Z,48.93
2022-12-27T19:30:51.412Z,47.90
2022-12-27T19:35:55.071Z,47.78
2022-12-27T19:41:03.287Z,47.83
2022-12-27T19:46:09.658Z,47.83
2022-12-27T19:51:13.258Z,47.56
2022-12-27T19:56:16.833Z,47.46
2022-12-27T20:01:20.451Z,47.37
2022-12-27T20:06:28.118Z,47.26
2022-12-27T20:11:33.137Z,47.10
2022-12-27T20:16:36.970Z,47.36
2022-12-27T20:21:40.877Z,47.18
2022-12-27T20:26:44.420Z,47.39
2022-12-27T20:31:49.957Z,47.18
2022-12-27T20:36:55.443Z,47.01
2022-12-27T20:41:59.129Z,47.77
2022-12-27T20:47:02.748Z,47.98
2022-12-27T20:52:06.385Z,48.42
2022-12-27T20:57:09.970Z,48.01
2022-12-27T21:02:13.789Z,47.46
2022-12-27T21:07:17.643Z,47.93
2022-12-27T21:12:21.257Z,48.46
2022-12-27T21:17:24.727Z,48.15
2022-12-27T21:22:28.200Z,48.41
2022-12-27T21:27:33.953Z,48.31
2022-12-27T21:32:37.506Z,48.42
2022-12-27T21:37:41.066Z,48.32
2022-12-27T21:42:44.576Z,48.38
2022-12-27T21:47:48.105Z,48.41
2022-12-27T21:52:52.685Z,48.28
2022-12-27T21:57:56.236Z,48.15
2022-12-27T22:03:00.075Z,48.39
2022-12-27T22:08:04.493Z,48.44
2022-12-27T22:13:08.027Z,48.61
2022-12-27T22:18:11.559Z,48.46
2022-12-27T22:23:15.031Z,48.62
2022-12-27T22:28:18.521Z,48.32
2022-12-27T22:33:22.027Z,48.13
2022-12-27T22:38:25.586Z,48.20
2022-12-27T22:43:29.098Z,48.19
2022-12-27T22:48:32.750Z,48.56
2022-12-27T22:53:36.221Z,48.50
2022-12-27T22:58:39.693Z,48.36
2022-12-27T23:03:43.226Z,48.44
2022-12-27T23:08:46.768Z,48.48
2022-12-27T23:13:50.265Z,48.65
2022-12-27T23:18:53.784Z,48.65
2022-12-27T23:23:57.286Z,48.59
2022-12-27T23:29:00.877Z,48.57
2022-12-27T23:34:04.470Z,48.48
2022-12-27T23:39:08.315Z,48.17
2022-12-27T23:44:11.825Z,48.09
2022-12-27T23:49:16.043Z,48.05
2022-12-27T23:54:19.556Z,47.98
2022-12-27T23:59:23.085Z,48.06
